Time;durP1;ratioP1;P1;durP2;ratioP2;P2;SDS_P1;SDS_P2;PMS_P1;PMS_P2;Temp;Humidity;BMP_temperature;BMP_pressure;BME280_temperature;BME280_humidity;BME280_pressure;Samples;Min_cycle;Max_cycle;Signal;HPM_P1;HPM_P2
2021/06/27 00:02:21;;;;;;;;;22.75;20.25;;;;;24.62;51.07;101034.56;5017264;27;51266;-44
2021/06/27 00:04:46;;;;;;;;;23.50;21.00;;;;;24.60;51.19;101037.56;5025447;28;50573;-47
2021/06/27 00:07:12;;;;;;;;;20.75;17.75;;;;;24.60;51.12;101047.81;5015461;27;52355;-46
2021/06/27 00:09:40;;;;;;;;;20.50;20.50;;;;;24.59;51.40;101046.94;5014985;27;50977;-44
2021/06/27 00:12:05;;;;;;;;;24.00;21.50;;;;;24.60;51.01;101053.34;5016097;27;51118;-45
2021/06/27 00:14:31;;;;;;;;;26.25;23.75;;;;;24.59;51.07;101052.47;5013572;28;51175;-47
2021/06/27 00:16:56;;;;;;;;;28.50;27.75;;;;;24.58;51.09;101045.25;5014281;27;50922;-45
2021/06/27 00:19:22;;;;;;;;;32.25;30.25;;;;;24.58;51.30;101039.72;5012392;27;50881;-44
2021/06/27 00:21:49;;;;;;;;;32.50;27.25;;;;;24.58;51.10;101039.72;5012728;27;51180;-47
2021/06/27 00:24:14;;;;;;;;;32.75;29.00;;;;;24.58;51.33;101045.25;5012714;27;51132;-48
2021/06/27 00:26:40;;;;;;;;;33.75;30.00;;;;;24.58;51.18;101052.72;5014031;27;51820;-45
2021/06/27 00:29:05;;;;;;;;;28.50;26.75;;;;;24.58;51.09;101055.50;5032426;27;51098;-49
2021/06/27 00:31:31;;;;;;;;;30.75;26.00;;;;;24.58;50.88;101056.34;5017091;27;51111;-45
2021/06/27 00:33:56;;;;;;;;;18.75;18.75;;;;;24.58;51.04;101075.72;5016994;28;51043;-47
2021/06/27 00:36:22;;;;;;;;;31.25;27.00;;;;;24.57;51.47;101065.75;5029447;27;51095;-49
2021/06/27 00:38:48;;;;;;;;;23.25;22.75;;;;;24.57;50.98;101070.44;5014144;27;51621;-52
2021/06/27 00:41:14;;;;;;;;;27.00;23.25;;;;;24.57;51.09;101064.91;5027063;27;51266;-50
2021/06/27 00:43:39;;;;;;;;;30.00;28.00;;;;;24.57;51.18;101062.13;5018054;27;51211;-48
2021/06/27 00:46:05;;;;;;;;;36.50;31.25;;;;;24.57;51.04;101062.97;5021414;27;51125;-48
2021/06/27 00:48:30;;;;;;;;;35.50;29.75;;;;;24.56;51.17;101069.59;5015596;27;51015;-47
2021/06/27 00:50:58;;;;;;;;;41.25;32.00;;;;;24.56;51.36;101063.22;5025233;27;51198;-47
2021/06/27 00:53:23;;;;;;;;;34.25;29.50;;;;;24.55;51.24;101062.38;5028954;27;51187;-50
2021/06/27 00:55:54;;;;;;;;;33.25;30.50;;;;;24.55;51.12;101065.16;5013690;27;51046;-45
2021/06/27 00:58:32;;;;;;;;;30.00;27.25;;;;;24.55;51.18;101075.38;5020081;27;51202;-51
2021/06/27 01:01:00;;;;;;;;;33.25;26.50;;;;;24.54;51.48;101065.41;5016150;27;51266;-46
2021/06/27 01:03:25;;;;;;;;;32.25;27.25;;;;;24.54;51.30;101070.94;5016681;27;51060;-46
2021/06/27 01:05:51;;;;;;;;;29.50;26.25;;;;;24.54;51.21;101071.78;5028923;27;51603;-45
2021/06/27 01:08:17;;;;;;;;;27.25;25.25;;;;;24.53;50.92;101053.47;5022166;27;51276;-49
2021/06/27 01:10:43;;;;;;;;;27.00;23.00;;;;;24.53;51.16;101022.19;5014861;28;51117;-49
2021/06/27 01:13:09;;;;;;;;;32.00;27.00;;;;;24.54;51.04;101012.78;5015603;27;51062;-47
2021/06/27 01:15:35;;;;;;;;;30.25;29.25;;;;;24.52;51.31;101013.03;5015709;28;51109;-46
2021/06/27 01:18:01;;;;;;;;;27.25;25.50;;;;;24.53;51.18;101013.88;5012185;27;51619;-51
2021/06/27 01:20:32;;;;;;;;;22.25;19.75;;;;;24.52;51.16;101021.34;5013409;27;51082;-47
2021/06/27 01:23:00;;;;;;;;;25.50;22.00;;;;;24.52;51.37;101012.19;5012276;27;51166;-46
2021/06/27 01:25:29;;;;;;;;;22.50;21.25;;;;;24.52;51.66;101026.88;5010956;27;53594;-49
2021/06/27 01:27:55;;;;;;;;;22.25;22.25;;;;;24.51;51.06;101019.66;5036909;27;51334;-51
2021/06/27 01:30:24;;;;;;;;;23.50;22.00;;;;;24.51;51.42;101033.50;5018508;27;51340;-47
2021/06/27 01:32:52;;;;;;;;;28.00;26.50;;;;;24.51;51.55;101033.50;5029503;27;51120;-47
2021/06/27 01:35:20;;;;;;;;;30.00;26.75;;;;;24.52;51.49;101039.88;5012898;27;51925;-46
2021/06/27 01:37:47;;;;;;;;;28.75;25.25;;;;;24.50;51.43;101023.50;5012732;27;51368;-47
2021/06/27 01:40:16;;;;;;;;;31.25;29.00;;;;;24.50;51.50;101015.22;5028263;27;51144;-49
2021/06/27 01:42:41;;;;;;;;;30.25;27.50;;;;;24.49;51.69;101016.28;5012949;27;51495;-45
2021/06/27 01:45:20;;;;;;;;;25.25;22.50;;;;;24.50;51.95;101012.44;5013916;27;51901;-45
2021/06/27 01:47:56;;;;;;;;;20.75;20.50;;;;;24.48;51.40;101018.19;5011276;27;51105;-48
2021/06/27 01:50:23;;;;;;;;;25.75;23.25;;;;;24.50;51.33;101015.22;5013500;28;51070;-48
2021/06/27 01:52:49;;;;;;;;;30.50;25.50;;;;;24.49;51.44;101005.22;5031457;27;51052;-47
2021/06/27 01:55:15;;;;;;;;;30.75;29.00;;;;;24.50;51.45;100992.22;5014350;28;51297;-47
2021/06/27 01:57:41;;;;;;;;;33.50;30.25;;;;;24.51;51.77;100993.91;5015999;27;51157;-47
2021/06/27 02:00:07;;;;;;;;;37.50;32.00;;;;;24.50;51.42;100987.50;5013277;28;51005;-47
2021/06/27 02:02:32;;;;;;;;;34.75;29.75;;;;;24.50;51.68;100990.28;5016958;27;51221;-47
2021/06/27 02:04:58;;;;;;;;;35.50;28.75;;;;;24.49;51.54;100996.91;5015520;28;51287;-50
2021/06/27 02:07:24;;;;;;;;;37.00;30.25;;;;;24.50;51.67;100986.69;5012952;27;51202;-47
2021/06/27 02:09:49;;;;;;;;;26.00;22.75;;;;;24.50;51.59;100990.28;5019580;28;50996;-45
2021/06/27 02:12:14;;;;;;;;;27.25;25.25;;;;;24.48;51.42;100973.88;5026616;27;51386;-45
2021/06/27 02:14:41;;;;;;;;;28.75;27.25;;;;;24.49;51.56;100972.00;5014606;27;52042;-45
2021/06/27 02:17:09;;;;;;;;;24.25;22.25;;;;;24.48;51.84;100964.75;5016370;27;51139;-47
2021/06/27 02:19:34;;;;;;;;;21.25;19.25;;;;;24.48;51.70;100964.75;5017162;28;51067;-47
2021/06/27 02:22:00;;;;;;;;;22.75;19.75;;;;;24.47;51.69;100950.06;5015629;27;52554;-47
2021/06/27 02:24:26;;;;;;;;;21.75;18.75;;;;;24.46;51.78;100947.53;5035953;27;51539;-48
2021/06/27 02:26:51;;;;;;;;;21.50;18.00;;;;;24.46;51.68;100939.22;5026777;27;51011;-48
2021/06/27 02:29:16;;;;;;;;;18.00;16.00;;;;;24.46;51.72;100928.16;5024610;27;51115;-47
2021/06/27 02:31:49;;;;;;;;;21.50;19.00;;;;;24.44;51.68;100922.88;5008662;27;51063;-46
2021/06/27 02:34:14;;;;;;;;;19.00;17.25;;;;;24.45;51.77;100919.00;5016715;27;51735;-47
2021/06/27 02:36:39;;;;;;;;;23.00;20.00;;;;;24.45;51.88;100918.16;5022530;27;51339;-50
2021/06/27 02:39:05;;;;;;;;;21.00;19.25;;;;;24.44;51.66;100914.56;5013427;27;51080;-47
2021/06/27 02:41:30;;;;;;;;;23.00;19.50;;;;;24.44;51.77;100911.78;5012902;27;51121;-47
2021/06/27 02:43:56;;;;;;;;;20.50;15.25;;;;;24.43;52.36;100899.03;5015782;27;51954;-45
2021/06/27 02:46:21;;;;;;;;;17.25;16.00;;;;;24.45;51.92;100898.78;5012587;27;51003;-45
2021/06/27 02:48:47;;;;;;;;;17.25;14.00;;;;;24.44;51.75;100903.50;5013908;28;51011;-47
2021/06/27 02:51:12;;;;;;;;;18.25;17.75;;;;;24.45;51.79;100896.84;5005900;27;51219;-48
2021/06/27 02:53:38;;;;;;;;;15.25;15.25;;;;;24.46;52.10;100889.41;5017873;27;52612;-47
2021/06/27 02:56:09;;;;;;;;;17.75;14.00;;;;;24.46;52.10;100889.41;5018282;27;51117;-49
2021/06/27 02:58:44;;;;;;;;;17.25;15.50;;;;;24.45;52.20;100890.47;5025943;27;51615;-47
2021/06/27 03:01:10;;;;;;;;;21.25;15.75;;;;;24.44;52.26;100886.03;5012495;27;51213;-48
2021/06/27 03:03:38;;;;;;;;;15.25;13.25;;;;;24.43;52.22;100887.97;5012713;28;51477;-47
2021/06/27 03:06:04;;;;;;;;;16.50;14.75;;;;;24.44;51.97;100888.81;5013170;27;51263;-47
2021/06/27 03:08:30;;;;;;;;;13.75;12.50;;;;;24.44;52.06;100881.34;5015777;27;51042;-45
2021/06/27 03:10:56;;;;;;;;;13.50;12.75;;;;;24.43;51.98;100878.81;5014881;28;51044;-45
2021/06/27 03:13:21;;;;;;;;;11.25;11.25;;;;;24.43;52.10;100887.97;5016449;27;51054;-46
2021/06/27 03:15:47;;;;;;;;;16.00;15.00;;;;;24.43;52.52;100887.97;5020022;27;51354;-46
2021/06/27 03:18:12;;;;;;;;;14.75;14.75;;;;;24.43;52.06;100892.66;5032909;27;51240;-46
2021/06/27 03:20:38;;;;;;;;;13.75;13.75;;;;;24.42;52.44;100891.81;5018974;28;51059;-46
2021/06/27 03:23:03;;;;;;;;;14.75;13.00;;;;;24.42;52.44;100886.28;5020220;27;50944;-47
2021/06/27 03:25:30;;;;;;;;;14.25;14.25;;;;;24.43;52.03;100887.13;5025738;27;51100;-45
2021/06/27 03:27:56;;;;;;;;;14.50;13.25;;;;;24.41;52.12;100890.16;5039623;27;51307;-47
2021/06/27 03:30:21;;;;;;;;;15.00;13.25;;;;;24.42;52.05;100891.00;5031554;28;51049;-45
2021/06/27 03:32:47;;;;;;;;;15.00;14.25;;;;;24.41;52.19;100886.53;5015738;27;52629;-51
2021/06/27 03:35:12;;;;;;;;;16.50;14.50;;;;;24.41;52.14;100886.53;5019211;27;51107;-46
2021/06/27 03:37:43;;;;;;;;;13.50;12.50;;;;;24.42;52.27;100891.00;5029670;27;51254;-45
2021/06/27 03:40:09;;;;;;;;;14.00;11.75;;;;;24.41;52.29;100873.53;5023890;28;50902;-45
2021/06/27 03:42:35;;;;;;;;;18.50;12.75;;;;;24.41;51.76;100859.69;5019425;27;51185;-46
2021/06/27 03:45:00;;;;;;;;;15.00;14.50;;;;;24.42;52.13;100860.53;5032947;28;51248;-45
2021/06/27 03:47:26;;;;;;;;;16.25;14.50;;;;;24.41;51.95;100859.69;5031061;27;51093;-48
2021/06/27 03:49:52;;;;;;;;;12.75;11.75;;;;;24.41;52.21;100861.63;5030192;27;51024;-46
2021/06/27 03:52:17;;;;;;;;;16.75;16.25;;;;;24.41;52.00;100879.06;5018358;27;51922;-45
2021/06/27 03:54:43;;;;;;;;;16.00;15.50;;;;;24.41;51.66;100884.63;5016380;27;51018;-45
2021/06/27 03:57:08;;;;;;;;;13.50;13.00;;;;;24.42;52.22;100896.53;5012002;27;51078;-44
2021/06/27 03:59:33;;;;;;;;;13.25;13.25;;;;;24.41;51.69;100900.38;5019007;27;51407;-44
2021/06/27 04:01:58;;;;;;;;;13.00;13.00;;;;;24.40;51.76;100896.78;5015190;27;51732;-44
2021/06/27 04:04:24;;;;;;;;;16.00;14.50;;;;;24.38;52.05;100893.38;5014929;28;51435;-44
2021/06/27 04:06:49;;;;;;;;;12.25;10.50;;;;;24.39;51.77;100895.09;5023318;27;51307;-44
2021/06/27 04:09:15;;;;;;;;;15.25;13.75;;;;;24.40;51.94;100901.47;5015069;27;51140;-43
2021/06/27 04:11:40;;;;;;;;;14.75;14.00;;;;;24.40;51.73;100898.72;5015385;27;51768;-45
2021/06/27 04:14:05;;;;;;;;;15.50;13.50;;;;;24.38;52.04;100882.31;5018430;27;50890;-44
2021/06/27 04:16:32;;;;;;;;;16.75;12.75;;;;;24.38;52.09;100885.09;5016476;27;51448;-45
2021/06/27 04:18:58;;;;;;;;;13.50;12.75;;;;;24.38;51.83;100885.09;5009808;27;51064;-44
2021/06/27 04:21:25;;;;;;;;;14.00;13.25;;;;;24.38;51.79;100901.69;5018700;27;51916;-44
2021/06/27 04:23:50;;;;;;;;;14.75;13.25;;;;;24.38;52.02;100892.56;5031396;27;51200;-44
2021/06/27 04:26:15;;;;;;;;;13.75;13.25;;;;;24.37;51.83;100883.41;5029517;27;53376;-47
2021/06/27 04:28:41;;;;;;;;;16.75;13.25;;;;;24.37;51.67;100879.78;5026030;27;51110;-46
2021/06/27 04:31:06;;;;;;;;;13.25;13.00;;;;;24.37;51.91;100883.41;5018401;27;51927;-45
2021/06/27 04:33:32;;;;;;;;;12.25;12.25;;;;;24.37;51.61;100877.03;5019476;28;51007;-45
2021/06/27 04:35:57;;;;;;;;;14.25;12.00;;;;;24.37;51.95;100886.19;5017327;27;50960;-46
2021/06/27 04:38:24;;;;;;;;;13.50;13.00;;;;;24.37;51.75;100888.09;5014645;27;51338;-45
2021/06/27 04:40:50;;;;;;;;;12.75;12.50;;;;;24.36;51.66;100887.25;5014495;28;52031;-45
2021/06/27 04:43:15;;;;;;;;;12.25;10.25;;;;;24.38;52.06;100892.56;5014180;27;51159;-47
2021/06/27 04:45:41;;;;;;;;;15.00;14.25;;;;;24.36;51.92;100890.03;5015632;28;51090;-46
2021/06/27 04:48:08;;;;;;;;;15.50;12.25;;;;;24.37;51.53;100885.34;5024450;27;51310;-47
2021/06/27 04:50:34;;;;;;;;;17.00;13.00;;;;;24.36;51.62;100890.03;5019313;27;52066;-49
2021/06/27 04:52:59;;;;;;;;;13.25;12.75;;;;;24.36;51.71;100886.44;5014847;27;51231;-45
2021/06/27 04:55:24;;;;;;;;;14.50;13.25;;;;;24.36;52.11;100891.97;5014804;28;51045;-49
2021/06/27 04:57:50;;;;;;;;;13.00;12.50;;;;;24.36;51.88;100891.97;5017663;27;51027;-48
2021/06/27 05:00:16;;;;;;;;;14.50;12.50;;;;;24.36;51.80;100894.72;5017612;27;51084;-45
2021/06/27 05:02:41;;;;;;;;;13.75;13.25;;;;;24.35;52.01;100884.75;5016826;27;50919;-48
2021/06/27 05:05:08;;;;;;;;;13.75;12.25;;;;;24.35;51.87;100895.81;5026695;28;50984;-48
2021/06/27 05:07:33;;;;;;;;;10.25;10.25;;;;;24.34;51.73;100888.59;5020198;27;51316;-48
2021/06/27 05:09:59;;;;;;;;;13.25;12.00;;;;;24.35;52.09;100893.06;5015668;27;50994;-45
2021/06/27 05:12:26;;;;;;;;;13.00;11.75;;;;;24.35;51.92;100893.06;5037195;27;51026;-45
2021/06/27 05:14:51;;;;;;;;;12.00;12.00;;;;;24.34;51.65;100888.59;5015141;27;51164;-45
2021/06/27 05:17:17;;;;;;;;;14.00;13.00;;;;;24.35;51.70;100890.28;5011275;27;51295;-45
2021/06/27 05:19:43;;;;;;;;;14.50;13.75;;;;;24.34;51.81;100885.84;5018030;27;52133;-45
2021/06/27 05:22:08;;;;;;;;;9.50;9.25;;;;;24.35;51.63;100884.75;5015900;27;51387;-46
2021/06/27 05:24:34;;;;;;;;;14.50;13.00;;;;;24.34;51.96;100883.06;5031441;28;51593;-47
2021/06/27 05:26:59;;;;;;;;;14.00;13.00;;;;;24.34;51.72;100878.38;5025100;27;51238;-44
2021/06/27 05:29:25;;;;;;;;;12.00;10.75;;;;;24.35;51.77;100879.22;5034453;27;51752;-46
2021/06/27 05:31:50;;;;;;;;;11.50;11.25;;;;;24.34;51.80;100881.13;5030807;27;51032;-50
2021/06/27 05:34:15;;;;;;;;;11.00;11.00;;;;;24.34;52.01;100880.31;5019926;27;50959;-48
2021/06/27 05:36:41;;;;;;;;;12.75;12.75;;;;;24.34;51.72;100883.06;5015085;27;51035;-45
2021/06/27 05:39:08;;;;;;;;;14.00;13.25;;;;;24.33;51.66;100889.69;5014025;27;52267;-46
2021/06/27 05:41:34;;;;;;;;;13.50;13.00;;;;;24.33;51.96;100892.47;5014074;27;51314;-46
2021/06/27 05:44:02;;;;;;;;;12.50;12.00;;;;;24.33;52.21;100889.69;5013488;28;51071;-45
2021/06/27 05:46:27;;;;;;;;;12.00;10.00;;;;;24.34;52.19;100886.69;5013059;27;51106;-52
2021/06/27 05:48:53;;;;;;;;;10.00;10.00;;;;;24.36;52.39;100886.44;5021085;27;50935;-52
2021/06/27 05:51:19;;;;;;;;;15.25;13.25;;;;;24.36;52.46;100880.88;5009818;27;51323;-53
2021/06/27 05:53:44;;;;;;;;;14.00;13.25;;;;;24.36;52.32;100881.72;5014393;27;51272;-54
2021/06/27 05:56:10;;;;;;;;;11.50;11.50;;;;;24.37;52.64;100880.63;5012846;28;51023;-50
2021/06/27 05:58:43;;;;;;;;;18.50;14.50;;;;;24.38;52.65;100879.53;5011965;28;51732;-52
2021/06/27 06:01:11;;;;;;;;;14.50;13.00;;;;;24.37;52.07;100880.63;5012076;28;51633;-52
2021/06/27 06:03:37;;;;;;;;;15.00;14.50;;;;;24.37;52.14;100879.78;5017060;27;52336;-52
2021/06/27 06:06:06;;;;;;;;;17.75;14.00;;;;;24.35;52.22;100880.06;5011921;28;51153;-52
2021/06/27 06:08:32;;;;;;;;;16.75;14.00;;;;;24.35;52.20;100885.59;5012010;28;51100;-49
2021/06/27 06:10:57;;;;;;;;;13.00;12.25;;;;;24.33;51.89;100890.53;5015836;28;51047;-53
2021/06/27 06:13:23;;;;;;;;;18.25;16.00;;;;;24.34;51.64;100894.97;5014374;28;51006;-51
2021/06/27 06:15:48;;;;;;;;;13.50;13.25;;;;;24.35;51.93;100895.81;5016727;28;51400;-53
2021/06/27 06:18:14;;;;;;;;;13.00;10.25;;;;;24.34;52.27;100891.38;5015441;28;51103;-52
2021/06/27 06:20:40;;;;;;;;;16.75;14.00;;;;;24.35;52.01;100890.28;5013842;28;51198;-50
2021/06/27 06:23:05;;;;;;;;;13.50;11.00;;;;;24.34;51.93;100883.06;5014730;27;51130;-52
2021/06/27 06:25:30;;;;;;;;;17.25;13.50;;;;;24.34;52.06;100891.38;5020243;28;51292;-52
2021/06/27 06:27:56;;;;;;;;;15.50;14.00;;;;;24.34;52.17;100889.44;5036156;27;51793;-53
2021/06/27 06:30:21;;;;;;;;;17.50;13.00;;;;;24.34;52.06;100889.44;5013548;28;51042;-53
2021/06/27 06:32:46;;;;;;;;;15.00;14.50;;;;;24.34;52.02;100894.97;5033698;27;51014;-50
2021/06/27 06:35:12;;;;;;;;;16.75;13.75;;;;;24.34;51.96;100885.84;5031867;28;51229;-50
2021/06/27 06:37:37;;;;;;;;;15.00;13.50;;;;;24.34;52.06;100886.69;5013887;28;51288;-47
2021/06/27 06:40:04;;;;;;;;;15.75;14.50;;;;;24.34;51.70;100888.59;5029784;27;50386;-50
2021/06/27 06:42:30;;;;;;;;;16.00;15.00;;;;;24.33;51.78;100875.84;5015326;28;51106;-53
2021/06/27 06:44:55;;;;;;;;;16.00;14.50;;;;;24.34;52.16;100888.59;5015703;28;51071;-56
2021/06/27 06:47:20;;;;;;;;;11.75;11.50;;;;;24.32;51.90;100885.25;5011636;27;51113;-57
2021/06/27 06:49:46;;;;;;;;;14.25;14.25;;;;;24.32;51.95;100890.78;5012688;28;51028;-56
2021/06/27 06:52:11;;;;;;;;;16.00;12.25;;;;;24.33;52.19;100889.69;5009776;28;51055;-51
2021/06/27 06:54:37;;;;;;;;;16.50;12.75;;;;;24.32;51.97;100899.94;5013372;28;51350;-49
2021/06/27 06:57:03;;;;;;;;;17.50;14.00;;;;;24.33;52.10;100904.38;5014172;28;51015;-46
2021/06/27 06:59:28;;;;;;;;;14.00;12.25;;;;;24.34;52.14;100902.44;5013529;27;51437;-54
2021/06/27 07:01:53;;;;;;;;;12.50;12.50;;;;;24.35;51.90;100901.34;5012990;27;51262;-48
2021/06/27 07:04:19;;;;;;;;;10.50;10.50;;;;;24.35;52.62;100898.59;5013826;28;51120;-55
2021/06/27 07:06:44;;;;;;;;;13.75;13.50;;;;;24.34;52.51;100900.53;5017814;28;52012;-58
2021/06/27 07:09:10;;;;;;;;;13.50;11.75;;;;;24.35;52.35;100906.91;5012558;28;51204;-58
2021/06/27 07:11:35;;;;;;;;;15.00;14.50;;;;;24.35;52.22;100896.66;5011183;28;51200;-62
2021/06/27 07:14:01;;;;;;;;;13.00;12.75;;;;;24.35;52.40;100899.44;5018253;28;51102;-57
2021/06/27 07:16:26;;;;;;;;;16.75;15.25;;;;;24.36;52.49;100894.72;5015542;28;52716;-59
2021/06/27 07:18:52;;;;;;;;;19.75;15.50;;;;;24.36;52.33;100892.81;5012768;28;51112;-57
2021/06/27 07:21:17;;;;;;;;;14.25;13.25;;;;;24.36;52.48;100897.50;5011165;28;51110;-53
2021/06/27 07:23:42;;;;;;;;;15.75;15.00;;;;;24.36;52.86;100898.34;5010969;28;51406;-56
2021/06/27 07:26:08;;;;;;;;;13.75;12.50;;;;;24.36;53.02;100894.72;5016064;27;50918;-56
2021/06/27 07:28:33;;;;;;;;;13.25;11.75;;;;;24.37;52.94;100902.78;5018789;27;50924;-59
2021/06/27 07:30:59;;;;;;;;;14.75;13.75;;;;;24.37;53.15;100900.00;5015874;28;51077;-55
2021/06/27 07:33:25;;;;;;;;;13.50;13.00;;;;;24.39;52.81;100899.78;5015711;28;51215;-54
2021/06/27 07:35:50;;;;;;;;;18.25;14.25;;;;;24.41;53.32;100892.06;5012517;28;51020;-49
2021/06/27 07:38:16;;;;;;;;;15.50;15.25;;;;;24.42;53.21;100894.59;5012730;27;51166;-54
2021/06/27 07:40:41;;;;;;;;;19.50;15.25;;;;;24.43;53.86;100893.50;5013887;28;51092;-52
2021/06/27 07:43:06;;;;;;;;;14.25;14.25;;;;;24.47;53.75;100893.84;5016696;28;50997;-51
2021/06/27 07:45:32;;;;;;;;;15.50;13.00;;;;;24.48;53.63;100887.22;5019221;28;50967;-52
2021/06/27 07:47:58;;;;;;;;;18.00;16.00;;;;;24.47;53.75;100877.22;5020131;28;51035;-48
2021/06/27 07:50:23;;;;;;;;;16.50;15.25;;;;;24.50;53.91;100876.75;5013466;27;51130;-51
2021/06/27 07:52:48;;;;;;;;;14.50;13.50;;;;;24.50;54.13;100871.22;5028550;28;51195;-53
2021/06/27 07:55:14;;;;;;;;;17.25;15.50;;;;;24.52;53.78;100866.25;5026701;27;51209;-52
2021/06/27 07:57:40;;;;;;;;;19.25;17.50;;;;;24.54;54.03;100863.25;5032731;28;50887;-48
2021/06/27 08:00:07;;;;;;;;;15.25;12.75;;;;;24.54;54.27;100866.00;5027574;27;51033;-50
2021/06/27 08:02:32;;;;;;;;;18.00;16.75;;;;;24.55;53.93;100860.22;5016986;27;51407;-48
2021/06/27 08:04:58;;;;;;;;;15.00;14.75;;;;;24.55;53.83;100868.53;5013052;28;51868;-53
2021/06/27 08:07:23;;;;;;;;;13.25;12.75;;;;;24.56;53.93;100863.81;5018239;28;51137;-49
2021/06/27 08:09:49;;;;;;;;;13.50;13.50;;;;;24.55;54.21;100868.53;5009098;28;51176;-48
2021/06/27 08:12:14;;;;;;;;;16.00;15.75;;;;;24.56;54.50;100861.88;5017265;28;50852;-50
2021/06/27 08:14:39;;;;;;;;;21.75;18.00;;;;;24.57;54.29;100855.25;5015271;28;51781;-52
2021/06/27 08:17:06;;;;;;;;;17.50;15.00;;;;;24.58;53.97;100861.63;5015837;27;51186;-47
2021/06/27 08:19:32;;;;;;;;;21.75;17.00;;;;;24.60;53.94;100853.94;5016353;27;51156;-48
2021/06/27 08:21:57;;;;;;;;;25.25;19.00;;;;;24.60;54.11;100856.72;5018847;28;51055;-53
2021/06/27 08:24:23;;;;;;;;;19.75;16.50;;;;;24.61;54.10;100858.38;5015857;28;51955;-49
2021/06/27 08:26:50;;;;;;;;;26.75;20.50;;;;;24.61;53.90;100858.38;5015469;27;51201;-47
2021/06/27 08:29:16;;;;;;;;;21.25;16.75;;;;;24.61;53.87;100869.47;5042312;27;51222;-49
2021/06/27 08:31:41;;;;;;;;;18.75;14.25;;;;;24.63;54.03;100872.81;5015130;27;51463;-51
2021/06/27 08:34:06;;;;;;;;;21.25;17.50;;;;;24.63;54.22;100872.81;5016793;27;51810;-48
2021/06/27 08:36:32;;;;;;;;;18.00;18.00;;;;;24.65;53.78;100879.78;5018238;27;50908;-47
2021/06/27 08:38:57;;;;;;;;;24.75;17.25;;;;;24.65;54.09;100885.31;5019339;27;51007;-47
2021/06/27 08:41:22;;;;;;;;;17.00;14.50;;;;;24.66;53.52;100892.53;5015417;27;50913;-48
2021/06/27 08:43:48;;;;;;;;;20.00;17.75;;;;;24.66;53.43;100891.69;5014707;28;51048;-47
2021/06/27 08:46:14;;;;;;;;;18.75;18.25;;;;;24.67;53.61;100887.84;5016497;28;51057;-47
2021/06/27 08:48:41;;;;;;;;;19.00;18.50;;;;;24.66;53.50;100892.53;5031469;28;51023;-47
2021/06/27 08:51:08;;;;;;;;;20.00;17.00;;;;;24.67;53.65;100887.84;5018447;28;51018;-47
2021/06/27 08:53:35;;;;;;;;;17.00;15.00;;;;;24.69;53.57;100899.50;5022850;28;51787;-48
2021/06/27 08:56:06;;;;;;;;;15.00;13.50;;;;;24.70;53.34;100895.69;5028861;28;51354;-49
2021/06/27 08:58:37;;;;;;;;;21.50;16.25;;;;;24.70;53.44;100895.69;5013483;28;51181;-48
2021/06/27 09:01:07;;;;;;;;;20.75;16.75;;;;;24.70;53.46;100892.91;5012863;28;51196;-46
2021/06/27 09:03:33;;;;;;;;;19.50;16.75;;;;;24.70;53.53;100890.13;5016388;28;51653;-47
2021/06/27 09:05:59;;;;;;;;;19.50;17.50;;;;;24.70;53.06;100890.13;5020816;28;51140;-47
2021/06/27 09:08:25;;;;;;;;;19.25;19.25;;;;;24.70;53.00;100892.91;5016628;28;51044;-49
2021/06/27 09:10:51;;;;;;;;;20.00;15.75;;;;;24.69;52.90;100900.34;5015346;28;50905;-49
2021/06/27 09:13:16;;;;;;;;;23.25;19.25;;;;;24.68;53.31;100898.66;5015180;28;52688;-51
2021/06/27 09:15:50;;;;;;;;;15.00;15.00;;;;;24.69;53.12;100900.34;5026388;28;51111;-50
2021/06/27 09:18:15;;;;;;;;;20.25;19.00;;;;;24.69;52.88;100903.13;5022355;27;51004;-48
2021/06/27 09:20:43;;;;;;;;;20.50;16.75;;;;;24.68;53.06;100895.06;5017182;28;51158;-52
2021/06/27 09:23:12;;;;;;;;;21.50;19.75;;;;;24.68;53.33;100898.66;5031433;27;50718;-46
2021/06/27 09:25:38;;;;;;;;;18.00;15.00;;;;;24.69;53.49;100899.50;5017274;28;51289;-46
2021/06/27 09:28:14;;;;;;;;;18.25;16.00;;;;;24.70;53.37;100910.38;5038592;27;51018;-46
2021/06/27 09:30:48;;;;;;;;;18.25;14.50;;;;;24.71;53.46;100906.50;5014561;27;51134;-47
2021/06/27 09:33:17;;;;;;;;;18.75;15.50;;;;;24.72;53.76;100908.19;5016760;28;51921;-46
2021/06/27 09:36:04;;;;;;;;;18.75;15.75;;;;;24.74;53.65;100907.94;5014431;28;51330;-46
2021/06/27 09:38:43;;;;;;;;;16.00;14.50;;;;;24.76;53.80;100912.13;5014596;28;51064;-48
2021/06/27 09:41:21;;;;;;;;;18.75;18.00;;;;;24.78;53.83;100909.09;5016474;28;51014;-48
2021/06/27 09:43:52;;;;;;;;;20.25;15.25;;;;;24.79;54.27;100912.69;5008768;28;51172;-49
2021/06/27 09:46:28;;;;;;;;;19.00;15.00;;;;;24.82;54.25;100912.22;5014472;28;51210;-51
2021/06/27 09:48:56;;;;;;;;;14.25;14.25;;;;;24.82;54.35;100920.53;5014467;28;52321;-48
2021/06/27 09:51:27;;;;;;;;;18.25;15.50;;;;;24.85;54.13;100920.03;5013957;28;51370;-48
2021/06/27 09:53:54;;;;;;;;;17.00;16.00;;;;;24.86;54.29;100921.72;5015249;28;51927;-49
2021/06/27 09:56:21;;;;;;;;;15.50;15.25;;;;;24.86;54.27;100919.78;5017502;28;51031;-48
2021/06/27 09:58:56;;;;;;;;;17.75;14.25;;;;;24.87;54.16;100928.94;5029696;28;50455;-52
2021/06/27 10:01:23;;;;;;;;;14.00;14.00;;;;;24.89;54.39;100935.06;5020132;28;51095;-48
2021/06/27 10:03:55;;;;;;;;;18.00;16.25;;;;;24.91;54.70;100938.44;5029379;28;52865;-46
2021/06/27 10:06:27;;;;;;;;;15.50;14.00;;;;;24.91;54.72;100941.22;5012075;28;51489;-49
2021/06/27 10:08:55;;;;;;;;;17.50;14.75;;;;;24.92;54.83;100940.97;5014598;28;51066;-48
2021/06/27 10:11:23;;;;;;;;;18.00;16.25;;;;;24.94;55.03;100940.69;5016752;27;51162;-48
2021/06/27 10:13:51;;;;;;;;;18.50;15.50;;;;;24.94;55.14;100946.25;5018649;27;51737;-48
2021/06/27 10:16:26;;;;;;;;;19.75;17.25;;;;;24.96;54.89;100955.13;5016378;28;51019;-49
2021/06/27 10:18:52;;;;;;;;;14.75;14.75;;;;;24.96;55.14;100947.66;5012954;28;51242;-48
2021/06/27 10:21:19;;;;;;;;;16.00;16.00;;;;;24.98;55.23;100951.03;5013721;28;50998;-48
2021/06/27 10:23:47;;;;;;;;;17.50;14.00;;;;;24.99;54.86;100951.88;5014735;27;51105;-48
2021/06/27 10:26:15;;;;;;;;;16.00;15.75;;;;;25.01;54.86;100949.66;5032786;28;51054;-48
2021/06/27 10:28:40;;;;;;;;;20.25;16.75;;;;;25.00;54.98;100954.38;5017112;27;51013;-47
2021/06/27 10:31:06;;;;;;;;;18.50;14.25;;;;;25.01;55.01;100950.56;5014241;28;51273;-51
2021/06/27 10:33:32;;;;;;;;;14.75;13.75;;;;;25.02;55.30;100957.78;5017419;28;51104;-49
2021/06/27 10:35:59;;;;;;;;;21.75;18.00;;;;;25.04;55.73;100960.31;5013854;28;51044;-52
2021/06/27 10:38:28;;;;;;;;;17.25;17.25;;;;;25.06;55.74;100963.66;5014150;27;51175;-49
2021/06/27 10:40:57;;;;;;;;;17.00;16.00;;;;;25.08;55.82;100967.03;5020660;28;51172;-49
2021/06/27 10:43:24;;;;;;;;;17.50;13.75;;;;;25.10;56.08;100967.59;5023804;28;51326;-51
2021/06/27 10:45:52;;;;;;;;;17.25;15.00;;;;;25.12;56.19;100971.00;5014246;28;51051;-49
2021/06/27 10:48:33;;;;;;;;;18.25;17.75;;;;;25.15;56.37;100977.97;5012927;28;50977;-51
2021/06/27 10:51:00;;;;;;;;;16.75;16.50;;;;;25.16;56.33;100969.38;5016362;28;50953;-50
2021/06/27 10:53:26;;;;;;;;;18.25;15.25;;;;;25.19;56.16;100968.03;5015831;27;51868;-55
2021/06/27 10:55:59;;;;;;;;;17.00;15.75;;;;;25.20;56.15;100964.19;5013137;27;51011;-48
2021/06/27 10:58:38;;;;;;;;;22.50;20.25;;;;;25.21;56.26;100971.41;5015409;28;51138;-53
2021/06/27 11:01:09;;;;;;;;;19.25;18.25;;;;;25.21;56.07;100961.16;5013439;28;51183;-49
2021/06/27 11:03:44;;;;;;;;;21.50;20.50;;;;;25.22;56.02;100962.84;5027116;28;52708;-51
2021/06/27 11:06:16;;;;;;;;;21.25;18.75;;;;;25.23;55.87;100972.00;5012492;28;51539;-53
2021/06/27 11:08:44;;;;;;;;;22.25;20.50;;;;;25.23;55.57;100972.84;5012906;28;51129;-55